Time;durP1;ratioP1;P1;durP2;ratioP2;P2;SDS_P1;SDS_P2;PMS_P1;PMS_P2;Temp;Humidity;BMP_temperature;BMP_pressure;BME280_temperature;BME280_humidity;BME280_pressure;Samples;Min_cycle;Max_cycle;Signal;HPM_P1;HPM_P2
2022/03/08 00:27:56;;;;;;;4.18;1.67;;;-0.70;99.90;;;;;;6214349;22;20040;-85
2022/03/08 01:20:35;;;;;;;3.10;1.65;;;-1.20;99.90;;;;;;6036167;23;20038;-84
2022/03/08 01:23:50;;;;;;;4.93;2.25;;;-1.00;99.90;;;;;;5894716;24;20026;-85
2022/03/08 01:27:17;;;;;;;3.50;1.60;;;-1.10;99.90;;;;;;5846011;24;20010;-85
2022/03/08 02:26:21;;;;;;;;;;;;;;;;;;;;;
2022/03/08 02:33:55;;;;;;;3.15;1.77;;;-1.50;99.90;;;;;;6346259;22;20027;-86
2022/03/08 02:44:32;;;;;;;5.32;2.75;;;-1.60;99.90;;;;;;6214490;23;20071;-86
2022/03/08 02:47:54;;;;;;;4.30;2.63;;;-1.60;99.90;;;;;;6219477;22;20069;-86
2022/03/08 02:50:38;;;;;;;3.67;2.47;;;-1.50;99.90;;;;;;6309233;22;20019;-87
2022/03/08 02:53:22;;;;;;;4.40;2.30;;;-1.70;99.90;;;;;;6337936;22;20512;-88
2022/03/08 02:56:11;;;;;;;4.72;2.35;;;-1.80;99.90;;;;;;6310925;22;20019;-86
2022/03/08 03:18:50;;;;;;;4.25;2.47;;;-1.80;99.90;;;;;;6288293;22;20018;-87
2022/03/08 03:33:32;;;;;;;9.35;3.50;;;-1.80;99.90;;;;;;6338718;22;20023;-87
2022/03/08 03:43:08;;;;;;;5.28;2.92;;;-1.80;99.90;;;;;;6300015;22;20028;-86
2022/03/08 03:46:05;;;;;;;4.72;3.03;;;-1.80;99.90;;;;;;6226587;22;20060;-87
2022/03/08 03:49:10;;;;;;;5.90;3.35;;;-1.80;99.90;;;;;;6274306;22;20019;-87
2022/03/08 03:51:50;;;;;;;7.55;4.05;;;-1.90;99.90;;;;;;6248301;22;20102;-86
2022/03/08 03:54:47;;;;;;;8.63;3.90;;;-1.40;99.90;;;;;;6249331;22;20151;-86
2022/03/08 03:58:09;;;;;;;5.75;3.38;;;-1.90;99.90;;;;;;6274865;22;20027;-86
2022/03/08 04:01:08;;;;;;;;;;;;;;;;;;;;;
2022/03/08 04:03:49;;;;;;;;;;;;;;;;;;;;;
2022/03/08 04:06:24;;;;;;;8.05;4.03;;;-1.90;99.90;;;;;;6249276;22;20399;-87
2022/03/08 04:09:01;;;;;;;7.93;4.65;;;-0.80;99.90;;;;;;6275370;22;20012;-87
2022/03/08 04:11:36;;;;;;;8.35;3.95;;;-1.10;99.90;;;;;;6248765;22;20353;-87
2022/03/08 04:14:25;;;;;;;6.30;3.55;;;-0.50;99.90;;;;;;6248997;22;20019;-88
2022/03/08 04:17:07;;;;;;;6.63;3.80;;;-2.50;99.90;;;;;;6248365;22;20020;-87
2022/03/08 04:19:49;;;;;;;6.05;3.92;;;-2.40;99.90;;;;;;6223534;22;20014;-86
2022/03/08 04:22:40;;;;;;;5.57;3.78;;;-2.90;99.90;;;;;;6249397;22;20015;-86
2022/03/08 04:25:41;;;;;;;6.28;4.07;;;-1.10;99.90;;;;;;6276151;22;20096;-87
2022/03/08 04:28:15;;;;;;;6.68;4.00;;;-2.10;99.90;;;;;;6223517;22;20091;-87
2022/03/08 04:30:50;;;;;;;8.48;4.05;;;-1.90;99.90;;;;;;6248559;22;20020;-88
2022/03/08 04:33:23;;;;;;;5.63;3.90;;;-1.50;99.90;;;;;;6224853;22;20016;-87
2022/03/08 04:36:04;;;;;;;6.35;4.28;;;-2.00;99.90;;;;;;6277165;22;20019;-87
2022/03/08 04:38:30;;;;;;;6.60;4.00;;;-1.90;99.90;;;;;;6250391;22;20066;-87
2022/03/08 04:41:14;;;;;;;7.85;3.55;;;-0.90;99.90;;;;;;6279295;22;20082;-87
2022/03/08 04:43:39;;;;;;;5.63;3.33;;;-0.60;99.90;;;;;;6253397;22;20437;-87
2022/03/08 04:46:09;;;;;;;7.13;3.92;;;-1.70;99.90;;;;;;6285460;22;20019;-84
2022/03/08 04:48:40;;;;;;;7.63;3.67;;;-1.40;99.90;;;;;;6288949;22;20016;-83
2022/03/08 04:51:09;;;;;;;6.55;3.65;;;-1.50;99.90;;;;;;6282169;22;20012;-84
2022/03/08 04:53:35;;;;;;;10.38;4.35;;;-2.00;99.90;;;;;;6277733;22;20020;-84
2022/03/08 04:56:08;;;;;;;6.97;4.25;;;-2.20;99.90;;;;;;6279933;22;20023;-83
2022/03/08 04:58:34;;;;;;;8.15;4.30;;;-1.20;99.90;;;;;;6273912;22;20019;-84
2022/03/08 05:01:01;;;;;;;6.43;4.40;;;-2.00;99.90;;;;;;6312287;22;20023;-86
2022/03/08 05:03:29;;;;;;;6.47;3.72;;;-2.00;99.90;;;;;;6279892;22;20445;-86
2022/03/08 05:05:55;;;;;;;5.63;3.88;;;-2.20;99.90;;;;;;6306727;22;20034;-85
2022/03/08 05:08:21;;;;;;;7.57;4.05;;;-2.20;99.90;;;;;;6279299;22;20019;-86
2022/03/08 05:10:54;;;;;;;7.40;4.20;;;-1.40;99.90;;;;;;6279607;22;20517;-85
2022/03/08 05:13:20;;;;;;;7.28;3.95;;;-2.70;99.90;;;;;;6306993;22;20018;-86
2022/03/08 05:15:56;;;;;;;9.45;4.70;;;-2.30;99.90;;;;;;6279261;22;20026;-85
2022/03/08 05:18:31;;;;;;;5.40;3.53;;;-2.00;99.90;;;;;;6307127;22;20045;-87
2022/03/08 05:20:59;;;;;;;7.07;3.97;;;-2.80;99.90;;;;;;6306414;22;20027;-88
2022/03/08 05:23:28;;;;;;;9.80;4.47;;;-1.70;99.90;;;;;;6279405;22;20084;-86
2022/03/08 05:26:00;;;;;;;7.28;4.63;;;-2.40;99.90;;;;;;6253904;22;20094;-85
2022/03/08 05:28:26;;;;;;;7.13;4.05;;;-2.40;99.90;;;;;;6278754;22;20072;-87
2022/03/08 05:30:52;;;;;;;7.60;4.05;;;-2.10;99.90;;;;;;6279089;22;20431;-86
2022/03/08 05:33:18;;;;;;;8.18;4.07;;;-1.50;99.90;;;;;;6278610;22;20022;-87
2022/03/08 05:35:44;;;;;;;7.18;4.60;;;-1.30;99.90;;;;;;6279287;22;20112;-87
2022/03/08 05:38:12;;;;;;;8.45;4.45;;;-2.40;99.90;;;;;;6279010;22;20019;-86
2022/03/08 05:40:43;;;;;;;6.57;3.83;;;-2.00;99.90;;;;;;6279794;22;20050;-86
2022/03/08 05:43:09;;;;;;;8.52;4.80;;;-2.40;99.90;;;;;;6252502;22;20070;-86
2022/03/08 05:45:34;;;;;;;7.70;4.45;;;-2.40;99.90;;;;;;6305988;22;20388;-87
2022/03/08 05:48:00;;;;;;;6.10;3.70;;;-1.30;99.90;;;;;;6278617;22;20016;-86
2022/03/08 05:50:26;;;;;;;9.95;5.20;;;-1.90;99.90;;;;;;6279010;22;20019;-86
2022/03/08 05:52:58;;;;;;;6.22;4.30;;;-1.50;99.90;;;;;;6305887;22;20015;-87
2022/03/08 05:55:44;;;;;;;10.30;4.53;;;-2.40;99.90;;;;;;6278612;22;20377;-85
2022/03/08 05:58:12;;;;;;;7.63;4.70;;;-2.50;99.90;;;;;;6278754;22;20026;-87
2022/03/08 06:00:39;;;;;;;8.80;4.53;;;-2.10;99.90;;;;;;6279379;22;20027;-87
2022/03/08 06:03:05;;;;;;;6.43;4.13;;;-2.40;99.90;;;;;;6278958;22;20042;-87
2022/03/08 06:05:31;;;;;;;10.75;4.38;;;-1.90;99.90;;;;;;6253557;22;20019;-87
2022/03/08 06:07:56;;;;;;;9.70;4.78;;;-2.60;99.90;;;;;;6278481;22;20084;-87
2022/03/08 06:10:22;;;;;;;8.95;4.72;;;-2.40;99.90;;;;;;6305931;22;20051;-84
2022/03/08 06:12:50;;;;;;;9.27;4.95;;;-2.30;99.90;;;;;;6279515;22;20020;-86
2022/03/08 06:15:16;;;;;;;8.10;4.72;;;-1.60;99.90;;;;;;6278376;22;20046;-87
2022/03/08 06:17:42;;;;;;;7.43;4.50;;;-1.80;99.90;;;;;;6279478;22;20016;-86
2022/03/08 06:20:09;;;;;;;7.78;4.63;;;-1.90;99.90;;;;;;6280793;22;20326;-86
2022/03/08 06:22:35;;;;;;;6.78;4.03;;;-2.40;99.90;;;;;;6280856;22;20019;-86
2022/03/08 06:25:01;;;;;;;6.90;4.10;;;-2.60;99.90;;;;;;6308661;22;20017;-87
2022/03/08 06:27:26;;;;;;;9.90;4.78;;;-0.60;99.90;;;;;;6280695;22;20047;-86
2022/03/08 06:29:52;;;;;;;7.78;4.60;;;-2.10;99.90;;;;;;6255750;22;20007;-86
2022/03/08 06:32:19;;;;;;;7.68;4.32;;;-2.40;99.90;;;;;;6280358;22;20057;-86
2022/03/08 06:34:45;;;;;;;9.45;4.55;;;-1.40;99.90;;;;;;6308662;22;20315;-87
2022/03/08 06:37:12;;;;;;;7.82;4.88;;;-1.30;99.90;;;;;;6307848;22;20047;-85
2022/03/08 06:39:38;;;;;;;9.15;4.55;;;-2.40;99.90;;;;;;6280435;22;20011;-86
2022/03/08 06:42:04;;;;;;;7.72;4.47;;;-1.00;99.90;;;;;;6280796;22;20077;-86
2022/03/08 06:44:39;;;;;;;7.57;4.20;;;-2.30;99.90;;;;;;6279164;22;20066;-85
2022/03/08 06:47:13;;;;;;;8.38;4.40;;;-1.90;99.90;;;;;;6280881;22;20023;-87
2022/03/08 06:49:49;;;;;;;10.18;5.63;;;-2.30;99.90;;;;;;6254970;22;20021;-86
2022/03/08 06:52:26;;;;;;;12.50;5.68;;;-2.20;99.90;;;;;;6307273;22;20019;-86
2022/03/08 06:55:00;;;;;;;13.82;5.20;;;-1.90;99.90;;;;;;6277758;22;20064;-87
2022/03/08 06:57:46;;;;;;;8.23;4.85;;;-2.20;99.90;;;;;;6277081;22;20402;-86
2022/03/08 07:00:25;;;;;;;9.02;5.38;;;-3.30;99.90;;;;;;6238455;22;20020;-84
2022/03/08 07:02:54;;;;;;;11.38;5.25;;;-1.90;99.90;;;;;;6279351;22;20090;-82
2022/03/08 07:05:25;;;;;;;11.02;5.63;;;;;;;;;;6280612;22;20019;-85
2022/03/08 07:08:17;;;;;;;9.23;5.20;;;-2.20;99.90;;;;;;6280483;22;20022;-85
2022/03/08 07:10:45;;;;;;;12.02;5.43;;;-2.20;99.90;;;;;;6278810;22;20023;-87
2022/03/08 07:13:22;;;;;;;10.65;5.22;;;-2.20;99.90;;;;;;6280788;22;20030;-84
2022/03/08 07:16:03;;;;;;;10.13;5.40;;;-2.10;99.90;;;;;;6305710;22;20015;-85
2022/03/08 07:18:29;;;;;;;11.25;5.68;;;-2.00;99.90;;;;;;6278099;22;20079;-84
2022/03/08 07:21:03;;;;;;;11.35;4.97;;;-2.00;99.90;;;;;;6307940;22;20019;-84
2022/03/08 07:23:46;;;;;;;9.20;5.07;;;-2.20;99.90;;;;;;6204410;22;20050;-85
2022/03/08 07:26:12;;;;;;;9.93;5.18;;;-2.00;99.90;;;;;;6279506;22;20015;-84
2022/03/08 07:29:11;;;;;;;8.90;5.32;;;-1.70;99.90;;;;;;6302904;22;20015;-85
2022/03/08 07:31:46;;;;;;;8.45;5.43;;;-1.30;99.90;;;;;;6307736;22;20381;-85
2022/03/08 07:34:57;;;;;;;10.27;5.13;;;-0.90;99.90;;;;;;6280208;22;20033;-84
2022/03/08 07:37:59;;;;;;;7.63;4.65;;;-1.40;99.90;;;;;;6278039;22;20385;-85
2022/03/08 07:40:59;;;;;;;8.35;4.68;;;-0.90;99.90;;;;;;6182032;23;20025;-85
2022/03/08 07:43:58;;;;;;;6.95;3.97;;;-1.00;99.90;;;;;;6156548;23;20053;-84
2022/03/08 07:46:55;;;;;;;8.48;4.60;;;-1.80;99.90;;;;;;6157360;23;20100;-85
2022/03/08 07:49:35;;;;;;;11.02;5.07;;;0.70;99.90;;;;;;6181698;23;20056;-84
2022/03/08 07:52:01;;;;;;;12.00;5.97;;;-1.00;99.90;;;;;;6157408;23;20017;-85
2022/03/08 08:01:47;;;;;;;11.95;5.68;;;0.10;99.90;;;;;;6180602;23;20512;-84
2022/03/08 08:04:13;;;;;;;9.88;5.30;;;1.50;99.90;;;;;;6157817;23;20487;-86
2022/03/08 08:06:39;;;;;;;10.13;4.78;;;0.60;99.90;;;;;;6157536;23;20076;-87
2022/03/08 08:09:07;;;;;;;11.15;4.85;;;0.50;99.90;;;;;;6157484;23;20017;-86
2022/03/08 08:11:36;;;;;;;10.48;5.35;;;0.60;99.90;;;;;;6181001;23;20021;-86
2022/03/08 08:14:04;;;;;;;7.68;4.53;;;0.80;99.90;;;;;;6182610;23;20098;-85
2022/03/08 08:16:32;;;;;;;9.77;5.00;;;0.90;99.90;;;;;;6193375;22;20499;-86
2022/03/08 08:18:58;;;;;;;7.57;4.10;;;1.00;99.90;;;;;;6276067;22;20011;-85
2022/03/08 08:21:25;;;;;;;9.07;4.53;;;1.10;99.90;;;;;;6248644;22;20043;-85
2022/03/08 08:23:50;;;;;;;8.63;5.10;;;1.50;99.90;;;;;;6247644;22;20016;-86
2022/03/08 08:26:16;;;;;;;9.63;4.63;;;1.50;99.90;;;;;;6248975;22;20089;-85
2022/03/08 08:28:46;;;;;;;9.77;5.55;;;1.90;99.90;;;;;;6250101;22;20098;-86
2022/03/08 08:31:14;;;;;;;12.85;6.60;;;2.00;99.90;;;;;;6248622;22;20015;-85
2022/03/08 08:33:40;;;;;;;8.73;4.95;;;1.90;99.90;;;;;;6249352;22;20027;-85
2022/03/08 08:36:06;;;;;;;12.13;6.78;;;2.00;99.90;;;;;;6249203;22;20012;-87
2022/03/08 08:38:33;;;;;;;13.07;6.15;;;2.20;99.90;;;;;;6277674;22;20012;-86
2022/03/08 08:40:58;;;;;;;10.80;5.80;;;2.40;99.90;;;;;;6250488;22;20016;-85
2022/03/08 08:43:24;;;;;;;10.82;6.35;;;2.60;99.90;;;;;;6277179;22;20022;-87
2022/03/08 08:45:52;;;;;;;11.25;6.38;;;2.80;99.90;;;;;;6276951;22;20042;-86
2022/03/08 08:48:20;;;;;;;10.07;5.40;;;2.90;99.90;;;;;;6248736;22;20015;-88
2022/03/08 08:50:46;;;;;;;8.88;4.82;;;3.10;99.90;;;;;;6276407;22;20513;-85
2022/03/08 08:53:11;;;;;;;8.95;4.65;;;3.20;99.90;;;;;;6275985;22;20019;-86
2022/03/08 08:55:38;;;;;;;8.48;5.30;;;3.40;99.90;;;;;;6276024;22;20395;-85
2022/03/08 08:58:05;;;;;;;9.18;5.45;;;4.30;99.90;;;;;;6276239;22;20015;-87
2022/03/08 09:00:31;;;;;;;9.02;4.90;;;3.80;99.90;;;;;;6275998;22;20381;-85
2022/03/08 09:02:57;;;;;;;9.13;5.68;;;3.90;99.90;;;;;;6276291;22;20026;-85
2022/03/08 09:05:23;;;;;;;9.18;5.03;;;4.70;99.90;;;;;;6276529;22;20054;-86
2022/03/08 09:07:49;;;;;;;8.48;4.50;;;4.20;99.90;;;;;;6275789;22;20020;-85
2022/03/08 09:10:16;;;;;;;8.82;5.25;;;4.40;99.90;;;;;;6223284;22;20016;-87
2022/03/08 09:12:50;;;;;;;8.60;4.95;;;5.40;99.90;;;;;;6275165;22;20489;-86
2022/03/08 09:15:16;;;;;;;10.73;4.90;;;5.30;99.90;;;;;;6250572;22;20019;-88
2022/03/08 09:17:44;;;;;;;8.85;5.85;;;4.80;99.90;;;;;;6276018;22;20015;-86
2022/03/08 09:20:11;;;;;;;10.25;5.78;;;4.90;99.90;;;;;;6275837;22;20019;-89
2022/03/08 09:22:36;;;;;;;10.15;5.25;;;5.10;99.90;;;;;;6275603;22;20315;-89
2022/03/08 09:25:03;;;;;;;7.60;5.05;;;5.20;99.90;;;;;;6248429;22;20077;-85
2022/03/08 09:27:30;;;;;;;10.90;6.03;;;5.30;99.90;;;;;;6248334;22;20023;-84
2022/03/08 09:29:56;;;;;;;8.25;5.00;;;5.50;99.90;;;;;;6275852;22;20019;-85
2022/03/08 09:32:23;;;;;;;7.90;4.80;;;5.60;99.90;;;;;;6275797;22;20019;-86
2022/03/08 09:34:49;;;;;;;8.20;5.43;;;5.70;99.90;;;;;;6275747;22;20438;-86
2022/03/08 09:37:15;;;;;;;8.75;5.72;;;5.80;99.90;;;;;;6275592;22;20445;-84
2022/03/08 09:39:41;;;;;;;11.95;5.93;;;5.90;99.90;;;;;;6248293;22;20011;-87
2022/03/08 09:42:07;;;;;;;12.80;6.35;;;6.10;99.90;;;;;;6275660;22;20023;-86
2022/03/08 09:44:33;;;;;;;9.38;5.55;;;6.20;99.90;;;;;;6275739;22;20019;-85
2022/03/08 09:46:59;;;;;;;9.38;5.32;;;6.30;99.90;;;;;;6275739;22;20027;-87
2022/03/08 09:49:25;;;;;;;8.05;4.75;;;6.40;99.90;;;;;;6275909;22;20079;-87
2022/03/08 09:51:53;;;;;;;7.43;4.30;;;6.60;99.90;;;;;;6275094;22;20022;-85
2022/03/08 09:54:19;;;;;;;6.65;4.22;;;7.10;99.90;;;;;;6277281;22;20018;-86
2022/03/08 09:56:45;;;;;;;8.52;4.75;;;7.50;99.90;;;;;;6277773;22;20459;-86
2022/03/08 09:59:14;;;;;;;8.35;4.28;;;6.90;99.90;;;;;;6250828;22;20016;-86
2022/03/08 10:01:40;;;;;;;10.55;4.70;;;7.40;99.90;;;;;;6293861;22;20015;-85
2022/03/08 10:04:07;;;;;;;8.45;5.22;;;8.00;99.90;;;;;;6280442;22;20051;-85
2022/03/08 10:06:50;;;;;;;7.55;4.40;;;7.30;99.90;;;;;;6279483;22;20015;-85
2022/03/08 10:09:18;;;;;;;7.47;4.32;;;7.60;99.90;;;;;;6280333;22;20027;-85
2022/03/08 10:11:44;;;;;;;7.78;4.43;;;7.60;99.90;;;;;;6308314;22;20011;-84
2022/03/08 10:14:26;;;;;;;7.78;4.38;;;7.70;99.90;;;;;;6308463;22;20011;-89
2022/03/08 10:17:00;;;;;;;6.88;4.35;;;7.90;99.90;;;;;;6280657;22;20007;-87
2022/03/08 10:19:26;;;;;;;7.30;4.53;;;8.10;99.90;;;;;;6308349;22;20051;-86
2022/03/08 10:21:54;;;;;;;7.18;4.13;;;8.10;99.90;;;;;;6308728;22;20026;-86
2022/03/08 10:24:29;;;;;;;6.90;4.43;;;8.40;99.90;;;;;;6308992;22;20019;-86
2022/03/08 10:27:09;;;;;;;7.40;4.10;;;8.20;99.90;;;;;;6308775;22;20061;-86
2022/03/08 10:29:37;;;;;;;6.50;4.13;;;8.30;99.90;;;;;;6308495;22;20609;-87
2022/03/08 10:32:17;;;;;;;7.13;4.10;;;8.50;99.90;;;;;;6308604;22;20398;-86
2022/03/08 10:34:44;;;;;;;8.18;3.72;;;8.60;99.90;;;;;;6255261;22;20450;-86
2022/03/08 10:37:23;;;;;;;6.18;3.72;;;8.70;99.90;;;;;;6281055;22;20453;-86
2022/03/08 10:39:55;;;;;;;5.65;3.08;;;8.70;99.90;;;;;;6281358;22;20054;-85
2022/03/08 10:42:25;;;;;;;6.00;3.20;;;8.80;99.90;;;;;;6281166;22;20011;-86
2022/03/08 10:44:59;;;;;;;6.35;3.53;;;9.30;99.90;;;;;;6255694;22;20026;-86
2022/03/08 10:47:25;;;;;;;4.90;3.00;;;9.00;99.90;;;;;;6257427;22;20043;-83
2022/03/08 10:49:56;;;;;;;6.35;3.53;;;9.10;99.90;;;;;;6310884;22;20447;-85
2022/03/08 10:52:27;;;;;;;4.90;3.00;;;9.20;99.90;;;;;;6283539;22;20030;-82
2022/03/08 10:54:53;;;;;;;3.53;3.08;;;9.30;99.90;;;;;;6281179;22;20015;-85
2022/03/08 10:57:19;;;;;;;4.78;2.85;;;9.40;99.90;;;;;;6308983;22;20337;-84
2022/03/08 11:00:14;;;;;;;5.93;3.15;;;9.40;99.90;;;;;;6309190;22;20062;-84
2022/03/08 11:02:51;;;;;;;4.55;2.58;;;9.60;99.90;;;;;;6305504;22;20389;-82
2022/03/08 11:05:18;;;;;;;4.88;2.67;;;9.70;99.90;;;;;;6280500;22;20015;-83
2022/03/08 11:07:45;;;;;;;4.53;2.78;;;9.80;99.60;;;;;;6255150;22;20020;-83
2022/03/08 11:10:12;;;;;;;6.47;2.90;;;10.00;99.40;;;;;;6281292;22;20750;-83
2022/03/08 11:12:38;;;;;;;5.25;3.03;;;9.80;98.70;;;;;;6305411;22;20311;-83
2022/03/08 11:15:05;;;;;;;4.30;2.65;;;9.80;99.90;;;;;;6280117;22;20020;-85
2022/03/08 11:17:34;;;;;;;5.75;2.85;;;10.10;99.90;;;;;;6280991;22;20018;-86
2022/03/08 11:20:03;;;;;;;4.85;2.40;;;10.10;97.80;;;;;;6308313;22;20010;-85
2022/03/08 11:22:31;;;;;;;3.92;2.55;;;10.20;96.70;;;;;;6278240;22;20078;-86
2022/03/08 11:24:57;;;;;;;4.28;2.58;;;10.20;93.20;;;;;;6308000;22;20007;-84
2022/03/08 12:02:19;;;;;;;4.75;2.50;;;10.80;90.90;;;;;;6278973;22;20023;-85
2022/03/08 12:05:04;;;;;;;3.30;2.08;;;10.90;88.10;;;;;;6307871;22;20019;-85
2022/03/08 12:07:45;;;;;;;5.10;2.80;;;10.90;91.00;;;;;;6277128;22;20022;-84
2022/03/08 12:10:29;;;;;;;4.65;2.03;;;11.00;91.80;;;;;;6279350;22;20011;-85
2022/03/08 12:12:55;;;;;;;4.35;2.17;;;11.00;90.30;;;;;;6279306;22;20081;-84
2022/03/08 12:15:24;;;;;;;6.80;2.70;;;11.00;89.20;;;;;;6280240;22;20016;-87
2022/03/08 12:18:17;;;;;;;5.25;2.10;;;11.20;85.70;;;;;;6279884;22;20157;-85
2022/03/08 12:20:43;;;;;;;4.57;1.90;;;11.10;84.10;;;;;;6280366;22;20023;-85
2022/03/08 12:23:12;;;;;;;3.00;1.65;;;11.10;90.20;;;;;;6253688;22;20015;-83
2022/03/08 12:25:40;;;;;;;5.13;2.05;;;11.20;88.40;;;;;;6254369;22;20102;-82
2022/03/08 12:28:09;;;;;;;3.65;2.20;;;11.80;85.20;;;;;;6279336;22;20038;-85
2022/03/08 12:31:19;;;;;;;8.00;2.17;;;11.30;84.20;;;;;;6252430;22;20023;-86
2022/03/08 12:34:01;;;;;;;4.10;2.60;;;11.20;76.90;;;;;;6297722;22;20023;-85
2022/03/08 12:36:28;;;;;;;4.05;2.38;;;11.20;80.90;;;;;;6279322;22;20053;-84
2022/03/08 12:39:22;;;;;;;3.75;2.30;;;11.20;82.40;;;;;;6279201;22;20015;-84
2022/03/08 12:41:47;;;;;;;5.97;2.38;;;11.30;82.70;;;;;;6251266;22;20023;-82
2022/03/08 12:44:20;;;;;;;5.20;2.72;;;11.40;86.10;;;;;;6279310;22;20019;-83
2022/03/08 12:47:05;;;;;;;4.03;2.40;;;11.30;75.10;;;;;;6282421;22;20023;-83
2022/03/08 12:49:41;;;;;;;4.68;2.42;;;11.30;85.80;;;;;;6281811;22;20068;-85
2022/03/08 12:52:12;;;;;;;3.75;2.42;;;11.50;86.20;;;;;;6306205;22;20050;-85
2022/03/08 12:54:41;;;;;;;3.92;2.35;;;11.60;83.40;;;;;;6278787;22;20354;-85
2022/03/08 12:57:10;;;;;;;3.20;1.88;;;11.80;84.70;;;;;;6279452;22;20043;-86
2022/03/08 12:59:50;;;;;;;3.08;2.10;;;11.70;80.00;;;;;;6306820;22;20019;-85
2022/03/08 13:02:17;;;;;;;3.05;1.90;;;12.20;81.10;;;;;;6279625;22;20009;-84
2022/03/08 13:04:44;;;;;;;4.50;2.13;;;11.40;81.50;;;;;;6306932;22;20019;-85
2022/03/08 13:07:12;;;;;;;2.83;1.73;;;11.50;83.50;;;;;;6279609;22;20019;-85
2022/03/08 13:09:58;;;;;;;3.95;2.13;;;11.70;83.00;;;;;;6279084;22;20094;-86
2022/03/08 13:12:35;;;;;;;3.97;2.30;;;11.60;79.40;;;;;;6279155;22;20023;-85
2022/03/08 13:15:15;;;;;;;2.83;2.03;;;12.20;81.80;;;;;;6279288;22;20020;-86
2022/03/08 13:17:51;;;;;;;4.20;1.85;;;11.70;84.30;;;;;;6306983;22;20017;-85
2022/03/08 13:20:30;;;;;;;4.38;2.50;;;12.00;81.00;;;;;;6306884;22;20334;-85
2022/03/08 13:23:02;;;;;;;3.97;2.28;;;11.70;76.50;;;;;;6279388;22;20011;-84
2022/03/08 13:25:28;;;;;;;3.58;2.10;;;11.70;74.60;;;;;;6306625;22;20019;-86
2022/03/08 13:28:18;;;;;;;4.80;2.03;;;11.90;75.30;;;;;;6279199;22;20008;-82
2022/03/08 13:30:49;;;;;;;3.22;2.08;;;11.70;70.90;;;;;;6306488;22;20026;-85
2022/03/08 13:33:33;;;;;;;5.05;2.08;;;11.60;71.80;;;;;;6306982;22;20020;-85
2022/03/08 13:35:59;;;;;;;3.17;1.52;;;11.40;70.30;;;;;;6279243;22;20011;-85
2022/03/08 13:42:43;;;;;;;3.40;1.80;;;11.60;74.30;;;;;;6306654;22;20052;-85
2022/03/08 13:45:15;;;;;;;3.38;1.60;;;11.70;73.20;;;;;;6278746;22;20019;-83
2022/03/08 13:47:51;;;;;;;2.55;1.35;;;11.70;70.80;;;;;;6278877;22;20484;-84
2022/03/08 13:50:24;;;;;;;2.13;1.10;;;11.50;74.20;;;;;;6253893;22;20076;-85
2022/03/08 13:52:54;;;;;;;3.13;1.50;;;11.80;76.00;;;;;;6306975;22;20303;-84
2022/03/08 13:55:25;;;;;;;3.00;1.30;;;11.80;72.80;;;;;;6279214;22;20016;-84
2022/03/08 13:58:18;;;;;;;5.47;1.30;;;11.80;68.50;;;;;;6279931;22;20112;-85
2022/03/08 14:00:48;;;;;;;2.10;1.13;;;11.80;69.90;;;;;;6157321;23;20017;-84
2022/03/08 14:03:18;;;;;;;2.75;1.00;;;11.80;73.20;;;;;;6157548;23;20036;-84
2022/03/08 14:06:11;;;;;;;3.40;1.10;;;11.80;72.70;;;;;;6156943;23;20093;-85
2022/03/08 14:08:49;;;;;;;2.85;1.23;;;11.70;71.50;;;;;;6156952;23;20096;-85
2022/03/08 14:11:17;;;;;;;3.72;1.35;;;11.70;71.60;;;;;;6156641;23;20483;-84
2022/03/08 14:13:59;;;;;;;2.78;1.30;;;11.70;69.10;;;;;;6132612;23;20443;-85
2022/03/08 14:16:37;;;;;;;1.88;1.05;;;11.70;70.60;;;;;;6182190;23;20044;-85
2022/03/08 14:19:11;;;;;;;2.60;1.00;;;12.00;70.50;;;;;;6156912;23;20017;-85
2022/03/08 14:21:48;;;;;;;2.55;1.20;;;11.70;71.10;;;;;;6206077;22;20018;-85
2022/03/08 14:24:22;;;;;;;3.42;1.60;;;11.80;70.50;;;;;;6279131;22;20023;-85
2022/03/08 14:27:06;;;;;;;2.65;1.95;;;11.60;71.90;;;;;;6305529;22;20015;-85
2022/03/08 14:29:35;;;;;;;2.83;1.60;;;11.70;73.60;;;;;;6307101;22;20080;-85
2022/03/08 14:32:06;;;;;;;3.63;1.73;;;11.50;72.00;;;;;;6279170;22;20051;-85
2022/03/08 14:34:36;;;;;;;3.45;2.10;;;11.50;75.00;;;;;;6254358;22;20023;-84
2022/03/08 14:37:07;;;;;;;3.67;1.67;;;11.40;74.10;;;;;;6307035;22;20068;-85
2022/03/08 14:39:38;;;;;;;3.75;1.65;;;11.60;77.30;;;;;;6279630;22;20015;-85
2022/03/08 14:42:12;;;;;;;2.53;1.67;;;11.10;76.60;;;;;;6281652;22;20051;-83
2022/03/08 14:44:50;;;;;;;3.58;1.85;;;11.00;75.30;;;;;;6308678;22;20065;-84
2022/03/08 14:47:23;;;;;;;3.17;1.85;;;10.80;78.60;;;;;;6280937;22;20450;-84
2022/03/08 14:49:52;;;;;;;2.17;1.25;;;10.70;82.60;;;;;;6308790;22;20322;-83
2022/03/08 14:52:20;;;;;;;3.47;1.33;;;10.60;82.80;;;;;;6278609;22;20015;-83
2022/03/08 14:54:47;;;;;;;2.22;1.23;;;10.60;81.30;;;;;;6308264;22;20026;-83
2022/03/08 14:57:12;;;;;;;3.72;1.23;;;10.40;82.60;;;;;;6308593;22;20094;-83
2022/03/08 14:59:38;;;;;;;2.28;1.25;;;10.50;80.70;;;;;;6280909;22;20100;-82
2022/03/08 15:02:04;;;;;;;2.03;1.02;;;10.40;79.80;;;;;;6280887;22;20026;-82
2022/03/08 15:04:30;;;;;;;2.13;1.00;;;11.10;84.90;;;;;;6280884;22;20015;-82
2022/03/08 15:06:56;;;;;;;3.42;1.40;;;10.30;81.10;;;;;;6280863;22;20016;-82
2022/03/08 15:09:22;;;;;;;1.65;0.90;;;10.40;83.10;;;;;;6307932;22;20021;-82
2022/03/08 15:11:47;;;;;;;1.70;1.05;;;10.30;83.80;;;;;;6308134;22;20019;-82
2022/03/08 15:14:14;;;;;;;2.65;1.20;;;10.20;85.90;;;;;;6280996;22;20497;-82
2022/03/08 15:16:40;;;;;;;4.20;1.30;;;10.60;83.70;;;;;;6280861;22;20354;-83
2022/03/08 15:19:06;;;;;;;3.33;1.10;;;10.20;82.20;;;;;;6280883;22;20076;-83
2022/03/08 15:21:33;;;;;;;1.83;0.90;;;10.20;83.00;;;;;;6254714;22;20020;-83
2022/03/08 15:23:59;;;;;;;2.65;1.20;;;10.10;88.50;;;;;;6280625;22;20054;-82
2022/03/08 15:26:29;;;;;;;2.63;1.45;;;10.20;87.00;;;;;;6281205;22;20061;-82
2022/03/08 15:28:55;;;;;;;2.47;1.15;;;10.10;85.90;;;;;;6308601;22;20053;-83
2022/03/08 15:31:21;;;;;;;3.60;1.67;;;10.00;85.30;;;;;;6308251;22;20015;-83
2022/03/08 15:33:48;;;;;;;2.28;1.23;;;10.10;83.70;;;;;;6281255;22;20019;-83
2022/03/08 15:36:16;;;;;;;2.33;1.10;;;10.00;84.70;;;;;;6280738;22;20018;-82
2022/03/08 15:38:42;;;;;;;2.00;1.20;;;9.90;85.10;;;;;;6280623;22;20029;-83
2022/03/08 15:41:08;;;;;;;2.25;1.13;;;10.20;84.50;;;;;;6280570;22;20437;-82
2022/03/08 15:43:34;;;;;;;3.30;1.05;;;10.40;86.40;;;;;;6280912;22;20077;-82
2022/03/08 15:46:01;;;;;;;1.95;1.10;;;9.70;87.10;;;;;;6307656;22;20438;-82
2022/03/08 15:48:27;;;;;;;1.80;1.08;;;9.70;86.50;;;;;;6308080;22;20020;-81
2022/03/08 15:50:52;;;;;;;3.15;1.30;;;9.70;85.80;;;;;;6308057;22;20012;-82
2022/03/08 15:53:21;;;;;;;2.67;1.23;;;9.70;87.60;;;;;;6254535;22;20102;-82
2022/03/08 15:55:47;;;;;;;3.05;1.05;;;10.40;88.40;;;;;;6280792;22;20090;-81
2022/03/08 15:58:13;;;;;;;1.92;1.20;;;9.70;86.40;;;;;;6307951;22;20023;-82
2022/03/08 16:00:39;;;;;;;2.42;1.50;;;9.50;88.30;;;;;;6254709;22;20106;-82
2022/03/08 16:03:05;;;;;;;1.88;1.20;;;10.30;89.10;;;;;;6280469;22;20023;-82
2022/03/08 16:05:31;;;;;;;3.75;1.10;;;9.50;87.50;;;;;;6307937;22;20011;-81
2022/03/08 16:07:56;;;;;;;3.30;1.30;;;9.50;89.70;;;;;;6307294;22;20019;-82
2022/03/08 16:10:22;;;;;;;2.45;1.38;;;9.40;90.70;;;;;;6280525;22;20469;-82
2022/03/08 16:12:48;;;;;;;1.85;1.10;;;9.40;91.20;;;;;;6254445;22;20386;-82
2022/03/08 16:15:14;;;;;;;2.90;1.27;;;10.00;92.30;;;;;;6279930;22;20015;-83
2022/03/08 16:17:42;;;;;;;3.60;1.42;;;9.20;91.90;;;;;;6254594;22;20055;-84
2022/03/08 16:20:08;;;;;;;2.17;1.15;;;9.20;91.40;;;;;;6307293;22;20018;-83
2022/03/08 16:22:36;;;;;;;1.60;0.90;;;9.10;93.60;;;;;;6279743;22;20706;-83
2022/03/08 16:25:05;;;;;;;1.20;0.80;;;9.50;94.40;;;;;;6279796;22;20011;-83
2022/03/08 16:27:34;;;;;;;1.25;0.88;;;8.90;95.10;;;;;;6307418;22;20018;-84
2022/03/08 16:30:01;;;;;;;4.40;1.70;;;9.00;95.10;;;;;;6280235;22;20015;-82
2022/03/08 16:32:27;;;;;;;2.50;0.90;;;8.80;95.30;;;;;;6279816;22;20065;-83
2022/03/08 16:34:53;;;;;;;1.42;0.85;;;9.10;96.50;;;;;;6307077;22;20015;-83
2022/03/08 16:37:19;;;;;;;1.38;0.75;;;8.60;97.40;;;;;;6254239;22;20023;-81
2022/03/08 16:39:45;;;;;;;2.38;1.00;;;8.50;97.90;;;;;;6279540;22;20051;-83
2022/03/08 16:42:14;;;;;;;2.47;0.93;;;8.40;98.20;;;;;;6279670;22;20023;-82
2022/03/08 16:44:42;;;;;;;1.90;1.08;;;8.60;99.00;;;;;;6279540;22;20012;-83
2022/03/08 16:47:08;;;;;;;2.10;0.82;;;8.60;99.20;;;;;;6279431;22;20028;-82
2022/03/08 16:49:36;;;;;;;1.83;0.88;;;8.20;99.60;;;;;;6279567;22;20007;-84
2022/03/08 16:52:02;;;;;;;1.88;1.02;;;8.50;99.90;;;;;;6306401;22;20019;-84
2022/03/08 17:02:00;;;;;;;1.35;0.90;;;7.80;99.90;;;;;;6306034;22;20018;-83
2022/03/08 17:04:26;;;;;;;2.60;1.00;;;7.70;99.90;;;;;;6279594;22;20067;-83
2022/03/08 17:06:52;;;;;;;1.67;0.88;;;8.00;99.90;;;;;;6306962;22;20107;-82
2022/03/08 17:13:08;;;;;;;2.15;1.00;;;7.10;99.90;;;;;;6306363;22;20076;-84
2022/03/08 17:15:36;;;;;;;2.08;0.90;;;7.20;99.90;;;;;;6306429;22;20020;-84
2022/03/08 17:18:04;;;;;;;1.50;0.90;;;7.10;99.90;;;;;;6278836;22;20018;-84
2022/03/08 17:20:31;;;;;;;1.15;0.73;;;7.10;99.90;;;;;;6278897;22;20464;-85
2022/03/08 17:22:56;;;;;;;1.67;0.93;;;7.00;99.90;;;;;;6279023;22;20015;-85